| time (UTC) | temp C | wind direction | speed KPH | gust KPH | rain 1hr cm | rain 24hr cm | rain mn cm | humidity % | barometer mb |
| 20260831070717 | 26 | 186 | 6.4 | 16.1 | 0.00 | 0.00 | 0.00 | 80 | 1012.7 |
| 20260831065733 | 26 | 192 | 6.4 | 16.1 | 0.00 | 0.00 | 0.00 | 79 | 1012.7 |
| 20260831064720 | 26 | 224 | 6.4 | 14.5 | 0.00 | 0.00 | 0.00 | 78 | 1012.8 |
| 20260831063700 | 26 | 192 | 6.4 | 17.7 | 0.00 | 0.00 | 0.00 | 77 | 1012.9 |
| 20260831062626 | 27 | 166 | 6.4 | 17.7 | 0.00 | 0.00 | 0.00 | 76 | 1012.9 |
| 20260831061610 | 27 | 193 | 8.0 | 17.7 | 0.00 | 0.00 | 0.00 | 75 | 1012.8 |
| 20260831060613 | 27 | 198 | 8.0 | 17.7 | 0.00 | 0.00 | 0.00 | 74 | 1012.7 |
| 20260831055545 | 27 | 184 | 8.0 | 16.1 | 0.00 | 0.00 | 0.00 | 73 | 1012.7 |
| 20260831054601 | 27 | 207 | 8.0 | 17.7 | 0.00 | 0.00 | 0.00 | 73 | 1012.7 |
| 20260831053542 | 27 | 174 | 8.0 | 17.7 | 0.00 | 0.00 | 0.00 | 73 | 1012.5 |
| 20260831052531 | 27 | 162 | 8.0 | 17.7 | 0.00 | 0.00 | 0.00 | 73 | 1012.5 |
| 20260831051556 | 28 | 186 | 8.0 | 19.3 | 0.00 | 0.00 | 0.00 | 73 | 1012.4 |
| 20260831045330 | 28 | 192 | 6.4 | 24.1 | 0.00 | 0.00 | 0.00 | 71 | 1012.4 |
| 20260831044303 | 28 | 167 | 9.7 | 24.1 | 0.00 | 0.00 | 0.00 | 70 | 1012.4 |
| 20260831042131 | 29 | 171 | 8.0 | 17.7 | 0.00 | 0.00 | 0.00 | 68 | 1012.4 |
| 20260831034900 | 30 | 177 | 8.0 | 22.5 | 0.00 | 0.00 | 0.00 | 65 | 1012.2 |
| 20260831033839 | 30 | 164 | 6.4 | 16.1 | 0.00 | 0.00 | 0.00 | 63 | 1012.1 |
| 20260831032811 | 30 | 175 | 6.4 | 16.1 | 0.00 | 0.00 | 0.00 | 62 | 1011.9 |
| 20260831030714 | 30 | 194 | 4.8 | 17.7 | 0.00 | 0.00 | 0.00 | 61 | 1011.8 |
| 20260831025705 | 30 | 159 | 4.8 | 17.7 | 0.00 | 0.00 | 0.00 | 60 | 1011.5 |
| 20260831024726 | 31 | 173 | 6.4 | 14.5 | 0.00 | 0.00 | 0.00 | 59 | 1011.4 |
| 20260831023655 | 31 | 136 | 6.4 | 19.3 | 0.00 | 0.00 | 0.00 | 58 | 1011.2 |
| 20260831021546 | 31 | 157 | 4.8 | 12.9 | 0.00 | 0.00 | 0.00 | 55 | 1010.9 |
| 20260831015424 | 32 | 197 | 6.4 | 14.5 | 0.00 | 0.00 | 0.00 | 54 | 1010.5 |
| 20260831014435 | 32 | 176 | 4.8 | 16.1 | 0.00 | 0.00 | 0.00 | 53 | 1010.4 |
| 20260831013402 | 32 | 155 | 3.2 | 16.1 | 0.00 | 0.00 | 0.00 | 51 | 1010.2 |
| 20260831012343 | 32 | 138 | 1.6 | 4.8 | 0.00 | 0.00 | 0.00 | 49 | 1010.1 |
| 20260831010222 | 33 | 123 | 1.6 | 8.0 | 0.00 | 0.00 | 0.00 | 47 | 1010.0 |
| 20260831005207 | 33 | 140 | 1.6 | 11.3 | 0.00 | 0.00 | 0.00 | 46 | 1009.9 |
| 20260831004206 | 34 | 105 | 3.2 | 12.9 | 0.00 | 0.00 | 0.00 | 45 | 1010.0 |
| 20260831003203 | 34 | 195 | 3.2 | 12.9 | 0.00 | 0.00 | 0.00 | 43 | 1009.9 |
| 20260831002207 | 35 | 148 | 3.2 | 9.7 | 0.00 | 0.00 | 0.00 | 43 | 1009.8 |
| 20260831001137 | 35 | 179 | 4.8 | 11.3 | 0.00 | 0.00 | 0.00 | 42 | 1009.8 |
| 20260831000112 | 35 | 171 | 4.8 | 14.5 | 0.00 | 0.00 | 0.00 | 41 | 1009.8 |
| 20260830235048 | 36 | 165 | 4.8 | 12.9 | 0.00 | 0.00 | 0.00 | 40 | 1009.8 |
| 20260830234022 | 36 | 140 | 3.2 | 9.7 | 0.00 | 0.00 | 0.00 | 40 | 1010.0 |
| 20260830232951 | 36 | 160 | 4.8 | 14.5 | 0.00 | 0.00 | 0.00 | 39 | 1009.9 |
| 20260830231929 | 36 | 106 | 4.8 | 14.5 | 0.00 | 0.00 | 0.00 | 39 | 1009.9 |
| 20260830230912 | 36 | 107 | 6.4 | 17.7 | 0.00 | 0.00 | 0.00 | 39 | 1010.0 |
| 20260830225848 | 36 | 107 | 4.8 | 17.7 | 0.00 | 0.00 | 0.00 | 40 | 1010.1 |
| 20260830224910 | 36 | 109 | 3.2 | 11.3 | 0.00 | 0.00 | 0.00 | 40 | 1010.0 |
| 20260830223910 | 36 | 159 | 4.8 | 20.9 | 0.00 | 0.00 | 0.00 | 40 | 1010.1 |
| 20260830222916 | 36 | 180 | 4.8 | 20.9 | 0.00 | 0.00 | 0.00 | 40 | 1010.2 |
| 20260830221909 | 36 | 134 | 4.8 | 20.9 | 0.00 | 0.00 | 0.00 | 40 | 1010.2 |
| 20260830220847 | 36 | 186 | 8.0 | 20.9 | 0.00 | 0.00 | 0.00 | 40 | 1010.2 |
| 20260830215822 | 36 | 143 | 6.4 | 17.7 | 0.00 | 0.00 | 0.00 | 40 | 1010.4 |
| 20260830213727 | 36 | 112 | 4.8 | 19.3 | 0.00 | 0.00 | 0.00 | 41 | 1010.5 |
| 20260830212705 | 36 | 91 | 6.4 | 24.1 | 0.00 | 0.00 | 0.00 | 43 | 1010.7 |
| 20260830211727 | 36 | 211 | 8.0 | 24.1 | 0.00 | 0.00 | 0.00 | 43 | 1010.7 |
| 20260830210709 | 36 | 142 | 6.4 | 17.7 | 0.00 | 0.00 | 0.00 | 44 | 1011.0 |
| 20260830205723 | 36 | 163 | 6.4 | 16.1 | 0.00 | 0.00 | 0.00 | 44 | 1011.2 |
| 20260830202417 | 35 | 195 | 4.8 | 19.3 | 0.00 | 0.00 | 0.00 | 47 | 1011.6 |
| 20260830201439 | 36 | 138 | 8.0 | 19.3 | 0.00 | 0.00 | 0.00 | 45 | 1011.6 |
| 20260830200415 | 36 | 219 | 6.4 | 19.3 | 0.00 | 0.00 | 0.00 | 46 | 1011.7 |
| 20260830195407 | 35 | 115 | 4.8 | 20.9 | 0.00 | 0.00 | 0.00 | 46 | 1011.9 |
| 20260830194341 | 35 | 194 | 8.0 | 20.9 | 0.00 | 0.00 | 0.00 | 47 | 1012.2 |
| 20260830193401 | 36 | 102 | 4.8 | 19.3 | 0.00 | 0.00 | 0.00 | 46 | 1012.3 |
| 20260830192353 | 35 | 203 | 6.4 | 17.7 | 0.00 | 0.00 | 0.00 | 47 | 1012.5 |
| 20260830191335 | 35 | 219 | 4.8 | 16.1 | 0.00 | 0.00 | 0.00 | 48 | 1012.6 |
| 20260830190315 | 35 | 205 | 4.8 | 20.9 | 0.00 | 0.00 | 0.00 | 48 | 1012.7 |
| 20260830185309 | 35 | 230 | 4.8 | 20.9 | 0.00 | 0.00 | 0.00 | 49 | 1013.0 |
| 20260830184241 | 34 | 169 | 3.2 | 12.9 | 0.00 | 0.00 | 0.00 | 49 | 1013.1 |
| 20260830183236 | 34 | 198 | 8.0 | 22.5 | 0.00 | 0.00 | 0.00 | 50 | 1013.3 |
| 20260830182226 | 34 | 229 | 6.4 | 22.5 | 0.00 | 0.00 | 0.00 | 49 | 1013.4 |
| 20260830181222 | 34 | 205 | 4.8 | 17.7 | 0.00 | 0.00 | 0.00 | 50 | 1013.5 |
| 20260830180213 | 34 | 186 | 3.2 | 17.7 | 0.00 | 0.00 | 0.00 | 51 | 1013.7 |
| 20260830175230 | 33 | 129 | 4.8 | 19.3 | 0.00 | 0.00 | 0.00 | 51 | 1014.0 |
| 20260830174225 | 33 | 121 | 6.4 | 19.3 | 0.00 | 0.00 | 0.00 | 52 | 1014.2 |
| 20260830173158 | 33 | 196 | 6.4 | 17.7 | 0.00 | 0.00 | 0.00 | 52 | 1014.2 |
| 20260830172215 | 33 | 140 | 4.8 | 17.7 | 0.00 | 0.00 | 0.00 | 51 | 1014.3 |
| 20260830171200 | 33 | 252 | 4.8 | 20.9 | 0.00 | 0.00 | 0.00 | 55 | 1014.4 |
| 20260830170220 | 32 | 138 | 6.4 | 20.9 | 0.00 | 0.00 | 0.00 | 55 | 1014.4 |
| 20260830165210 | 32 | 153 | 1.6 | 12.9 | 0.00 | 0.00 | 0.00 | 58 | 1014.5 |
| 20260830163031 | 31 | 202 | 3.2 | 16.1 | 0.00 | 0.00 | 0.00 | 61 | 1014.7 |
| 20260830162041 | 31 | 194 | 6.4 | 16.1 | 0.00 | 0.00 | 0.00 | 60 | 1014.7 |
| 20260830161018 | 31 | 170 | 3.2 | 12.9 | 0.00 | 0.00 | 0.00 | 61 | 1014.7 |
| 20260830160005 | 31 | 146 | 3.2 | 14.5 | 0.00 | 0.00 | 0.00 | 63 | 1014.6 |
| 20260830154954 | 30 | 167 | 4.8 | 20.9 | 0.00 | 0.00 | 0.00 | 63 | 1014.6 |
| 20260830154004 | 30 | 196 | 6.4 | 20.9 | 0.00 | 0.00 | 0.00 | 63 | 1014.6 |
| 20260830153004 | 30 | 211 | 1.6 | 11.3 | 0.00 | 0.00 | 0.00 | 67 | 1014.5 |
| 20260830150857 | 30 | 181 | 3.2 | 17.7 | 0.00 | 0.00 | 0.00 | 70 | 1014.4 |
| 20260830145849 | 29 | 286 | 3.2 | 12.9 | 0.00 | 0.00 | 0.00 | 73 | 1014.4 |
| 20260830144829 | 28 | 240 | 3.2 | 12.9 | 0.00 | 0.00 | 0.00 | 75 | 1014.4 |
| 20260830143810 | 28 | 209 | 6.4 | 16.1 | 0.00 | 0.00 | 0.00 | 78 | 1014.5 |
| 20260830142739 | 27 | 182 | 3.2 | 17.7 | 0.00 | 0.00 | 0.00 | 79 | 1014.5 |
| 20260830141720 | 27 | 213 | 3.2 | 16.1 | 0.00 | 0.00 | 0.00 | 81 | 1014.5 |
| 20260830140653 | 27 | 197 | 3.2 | 16.1 | 0.00 | 0.00 | 0.00 | 82 | 1014.3 |
| 20260830135643 | 26 | 179 | 3.2 | 16.1 | 0.00 | 0.00 | 0.00 | 84 | 1014.2 |
| 20260830133446 | 25 | 219 | 3.2 | 12.9 | 0.00 | 0.00 | 0.00 | 87 | 1014.1 |
| 20260830132446 | 25 | 183 | 1.6 | 6.4 | 0.00 | 0.00 | 0.00 | 89 | 1014.0 |
| 20260830130333 | 24 | 211 | 1.6 | 11.3 | 0.00 | 0.00 | 0.00 | 91 | 1013.9 |
| 20260830125313 | 23 | 188 | 3.2 | 9.7 | 0.00 | 0.00 | 0.00 | 91 | 1013.8 |
| 20260830124335 | 23 | 185 | 3.2 | 8.0 | 0.00 | 0.00 | 0.00 | 91 | 1013.8 |
| 20260830123302 | 23 | 196 | 3.2 | 12.9 | 0.00 | 0.00 | 0.00 | 90 | 1013.7 |
| 20260830121106 | 23 | 215 | 3.2 | 11.3 | 0.00 | 0.00 | 0.00 | 90 | 1013.3 |
| 20260830114956 | 24 | 221 | 3.2 | 8.0 | 0.00 | 0.00 | 0.00 | 89 | 1013.4 |
| 20260830114008 | 24 | 164 | 3.2 | 12.9 | 0.00 | 0.00 | 0.00 | 89 | 1013.4 |
| 20260830112954 | 24 | 186 | 3.2 | 12.9 | 0.00 | 0.00 | 0.00 | 89 | 1013.2 |
| 20260830111926 | 24 | 172 | 3.2 | 11.3 | 0.00 | 0.00 | 0.00 | 89 | 1013.1 |
| 20260830105825 | 24 | 187 | 3.2 | 12.9 | 0.00 | 0.00 | 0.00 | 88 | 1013.1 |
| 20260830104800 | 24 | 188 | 3.2 | 12.9 | 0.00 | 0.00 | 0.00 | 87 | 1013.0 |
| 20260830103726 | 24 | 221 | 3.2 | 9.7 | 0.00 | 0.00 | 0.00 | 87 | 1013.0 |
| 20260830102742 | 24 | 196 | 3.2 | 9.7 | 0.00 | 0.00 | 0.00 | 86 | 1012.9 |
| 20260830101742 | 24 | 210 | 3.2 | 9.7 | 0.00 | 0.00 | 0.00 | 86 | 1013.0 |
| 20260830100729 | 24 | 178 | 3.2 | 11.3 | 0.00 | 0.00 | 0.00 | 85 | 1013.0 |
| 20260830095731 | 24 | 220 | 3.2 | 11.3 | 0.00 | 0.00 | 0.00 | 85 | 1013.0 |
| 20260830094716 | 24 | 182 | 4.8 | 9.7 | 0.00 | 0.00 | 0.00 | 84 | 1012.9 |
| 20260830093652 | 24 | 184 | 3.2 | 11.3 | 0.00 | 0.00 | 0.00 | 83 | 1013.0 |
| 20260830091524 | 25 | 232 | 4.8 | 14.5 | 0.00 | 0.00 | 0.00 | 82 | 1013.0 |
| 20260830090532 | 25 | 186 | 4.8 | 14.5 | 0.00 | 0.00 | 0.00 | 81 | 1013.0 |
| 20260830085552 | 25 | 207 | 4.8 | 14.5 | 0.00 | 0.00 | 0.00 | 80 | 1013.0 |
| 20260830084530 | 25 | 192 | 6.4 | 14.5 | 0.00 | 0.00 | 0.00 | 80 | 1013.0 |
| 20260830083503 | 25 | 175 | 4.8 | 14.5 | 0.00 | 0.00 | 0.00 | 80 | 1013.0 |
| 20260830080200 | 25 | 198 | 4.8 | 16.1 | 0.00 | 0.00 | 0.00 | 78 | 1013.2 |
| 20260830075205 | 25 | 162 | 4.8 | 16.1 | 0.00 | 0.00 | 0.00 | 78 | 1013.4 |
| 20260830074137 | 26 | 170 | 6.4 | 14.5 | 0.00 | 0.00 | 0.00 | 77 | 1013.4 |
| 20260830073102 | 26 | 140 | 6.4 | 14.5 | 0.00 | 0.00 | 0.00 | 77 | 1013.4 |
| 20260830072055 | 26 | 167 | 6.4 | 12.9 | 0.00 | 0.00 | 0.00 | 76 | 1013.5 |